createdAt,value
2023-04-20T00:00:47.107Z,9.71
2023-04-20T00:01:49.362Z,9.73
2023-04-20T00:02:52.633Z,9.74
2023-04-20T00:03:56.773Z,9.71
2023-04-20T00:04:59.472Z,9.71
2023-04-20T00:06:02.752Z,9.71
2023-04-20T00:07:05.834Z,9.73
2023-04-20T00:08:09.815Z,9.73
2023-04-20T00:09:13.304Z,9.77
2023-04-20T00:10:16.162Z,9.75
2023-04-20T00:11:18.306Z,9.78
2023-04-20T00:12:20.635Z,9.80
2023-04-20T00:13:22.969Z,9.80
2023-04-20T00:14:25.394Z,9.81
2023-04-20T00:15:33.743Z,9.83
2023-04-20T00:16:37.265Z,9.82
2023-04-20T00:17:39.579Z,9.78
2023-04-20T00:18:42.308Z,9.78
2023-04-20T00:19:45.822Z,9.79
2023-04-20T00:20:48.087Z,9.83
2023-04-20T00:21:50.714Z,9.84
2023-04-20T00:22:54.221Z,9.82
2023-04-20T00:23:57.019Z,9.83
2023-04-20T00:24:59.051Z,9.81
2023-04-20T00:26:01.287Z,9.78
2023-04-20T00:27:03.664Z,9.82
2023-04-20T00:28:05.873Z,9.81
2023-04-20T00:29:09.619Z,9.82
2023-04-20T00:30:13.968Z,9.84
2023-04-20T00:31:17.036Z,9.81
2023-04-20T00:32:19.781Z,9.80
2023-04-20T00:33:23.931Z,9.79
2023-04-20T00:34:26.162Z,9.79
2023-04-20T00:35:28.458Z,9.77
2023-04-20T00:36:31.082Z,9.74
2023-04-20T00:37:34.158Z,9.74
2023-04-20T00:38:36.479Z,9.78
2023-04-20T00:39:40.608Z,9.78
2023-04-20T00:40:44.102Z,9.79
2023-04-20T00:41:46.591Z,9.81
2023-04-20T00:42:48.913Z,9.79
2023-04-20T00:43:53.438Z,9.78
2023-04-20T00:44:55.810Z,9.78
2023-04-20T00:45:59.285Z,9.78
2023-04-20T00:47:01.683Z,9.77
2023-04-20T00:48:05.980Z,9.75
2023-04-20T00:49:09.137Z,9.77
2023-04-20T00:50:12.367Z,9.72
2023-04-20T00:51:15.012Z,9.71
2023-04-20T00:52:17.542Z,9.70
2023-04-20T00:53:20.369Z,9.74
2023-04-20T00:54:26.320Z,9.72
2023-04-20T00:55:30.595Z,9.78
2023-04-20T00:56:33.330Z,9.80
2023-04-20T00:57:36.359Z,9.76
2023-04-20T00:58:38.924Z,9.73
2023-04-20T00:59:41.549Z,9.77
2023-04-20T01:00:44.172Z,9.74
2023-04-20T01:01:47.581Z,9.74
2023-04-20T01:02:51.396Z,9.72
2023-04-20T01:03:54.312Z,9.73
2023-04-20T01:04:57.005Z,9.77
2023-04-20T01:06:00.145Z,9.77
2023-04-20T01:07:03.069Z,9.77
2023-04-20T01:08:08.438Z,9.81
2023-04-20T01:09:11.910Z,9.81
2023-04-20T01:10:14.733Z,9.78
2023-04-20T01:11:17.725Z,9.80
2023-04-20T01:12:20.231Z,9.77
2023-04-20T01:13:22.934Z,9.78
2023-04-20T01:14:25.051Z,9.79
2023-04-20T01:15:28.302Z,9.80
2023-04-20T01:16:31.367Z,9.80
2023-04-20T01:17:36.748Z,9.81
2023-04-20T01:18:44.935Z,9.77
2023-04-20T01:19:48.544Z,9.78
2023-04-20T01:20:50.913Z,9.70
2023-04-20T01:21:53.130Z,9.69
2023-04-20T01:22:55.855Z,9.68
2023-04-20T01:23:58.538Z,9.66
2023-04-20T01:25:00.976Z,9.65
2023-04-20T01:26:08.710Z,9.65
2023-04-20T01:27:11.762Z,9.67
2023-04-20T01:28:14.153Z,9.68
2023-04-20T01:29:17.121Z,9.66
2023-04-20T01:30:19.604Z,9.65
2023-04-20T01:31:22.460Z,9.65
2023-04-20T01:32:27.387Z,9.64
2023-04-20T01:33:30.091Z,9.63
2023-04-20T01:34:32.369Z,9.64
2023-04-20T01:35:34.692Z,9.63
2023-04-20T01:36:37.654Z,9.65
2023-04-20T01:37:41.632Z,9.62
2023-04-20T01:38:43.988Z,9.63
2023-04-20T01:39:46.107Z,9.62
2023-04-20T01:40:48.722Z,9.61
2023-04-20T01:41:51.259Z,9.63
2023-04-20T01:42:54.039Z,9.63
2023-04-20T01:43:58.147Z,9.65
2023-04-20T01:45:00.448Z,9.68
2023-04-20T01:46:03.475Z,9.64
2023-04-20T01:47:05.911Z,9.64
2023-04-20T01:48:08.665Z,9.64
2023-04-20T01:49:12.102Z,9.60
2023-04-20T01:50:14.692Z,9.58
2023-04-20T01:51:17.365Z,9.61
2023-04-20T01:52:19.773Z,9.55
2023-04-20T01:53:24.835Z,9.50
2023-04-20T01:54:27.024Z,9.50
2023-04-20T01:55:30.188Z,9.52
2023-04-20T01:56:33.042Z,9.53
2023-04-20T01:57:35.735Z,9.54
2023-04-20T01:58:38.191Z,9.51
2023-04-20T01:59:40.598Z,9.52
2023-04-20T02:00:44.519Z,9.47
2023-04-20T02:01:47.155Z,9.47
2023-04-20T02:02:50.020Z,9.50
2023-04-20T02:03:52.642Z,9.50
2023-04-20T02:04:56.742Z,9.46
2023-04-20T02:05:58.966Z,9.46
2023-04-20T02:07:03.235Z,9.46
2023-04-20T02:08:05.675Z,9.45
2023-04-20T02:09:08.711Z,9.42
2023-04-20T02:10:12.770Z,9.45
2023-04-20T02:11:17.146Z,9.45
2023-04-20T02:12:19.315Z,9.47
2023-04-20T02:13:21.849Z,9.49
2023-04-20T02:14:24.302Z,9.49
2023-04-20T02:15:26.535Z,9.49
2023-04-20T02:16:29.434Z,9.50
2023-04-20T02:17:33.865Z,9.47
2023-04-20T02:18:36.831Z,9.46
2023-04-20T02:19:39.787Z,9.41
2023-04-20T02:20:43.482Z,9.39
2023-04-20T02:21:46.040Z,9.39
2023-04-20T02:22:48.364Z,9.40
2023-04-20T02:23:50.928Z,9.39
2023-04-20T02:24:56.575Z,9.38
2023-04-20T02:25:59.078Z,9.39
2023-04-20T02:27:01.903Z,9.40
2023-04-20T02:28:06.041Z,9.42
2023-04-20T02:29:08.217Z,9.42
2023-04-20T02:30:11.908Z,9.43
2023-04-20T02:31:14.310Z,9.42
2023-04-20T02:32:18.882Z,9.41
2023-04-20T02:33:21.883Z,9.41
2023-04-20T02:34:25.938Z,9.41
2023-04-20T02:35:30.239Z,9.39
2023-04-20T02:36:33.750Z,9.39
2023-04-20T02:37:36.232Z,9.40
2023-04-20T02:38:40.577Z,9.37
2023-04-20T02:39:42.997Z,9.33
2023-04-20T02:40:45.720Z,9.33
2023-04-20T02:41:48.219Z,9.30
2023-04-20T02:42:50.455Z,9.29
2023-04-20T02:43:52.885Z,9.25
2023-04-20T02:44:55.611Z,9.27
2023-04-20T02:45:57.809Z,9.29
2023-04-20T02:47:00.395Z,9.29
2023-04-20T02:48:03.007Z,9.30
2023-04-20T02:49:06.961Z,9.32
2023-04-20T02:50:12.333Z,9.36
2023-04-20T02:51:16.364Z,9.32
2023-04-20T02:52:20.365Z,9.33
2023-04-20T02:53:22.748Z,9.37
2023-04-20T02:54:26.928Z,9.36
2023-04-20T02:55:29.363Z,9.35
2023-04-20T02:56:33.085Z,9.35
2023-04-20T02:57:37.270Z,9.36
2023-04-20T02:58:41.848Z,9.35
2023-04-20T02:59:45.993Z,9.38
2023-04-20T03:01:00.443Z,9.37
2023-04-20T03:02:03.723Z,9.33
2023-04-20T03:03:06.758Z,9.34
2023-04-20T03:04:09.774Z,9.34
2023-04-20T03:05:13.991Z,9.33
2023-04-20T03:06:18.502Z,9.33
2023-04-20T03:07:23.337Z,9.32
2023-04-20T03:08:26.179Z,9.30
2023-04-20T03:09:29.223Z,9.31
2023-04-20T03:10:37.596Z,9.33
2023-04-20T03:11:42.146Z,9.31
2023-04-20T03:12:46.002Z,9.22
2023-04-20T03:13:53.257Z,9.22
2023-04-20T03:14:55.542Z,9.22
2023-04-20T03:16:00.338Z,9.21
2023-04-20T03:17:04.935Z,9.20
2023-04-20T03:18:07.080Z,9.22
2023-04-20T03:19:09.275Z,9.22
2023-04-20T03:20:13.279Z,9.22
2023-04-20T03:21:15.947Z,9.20
2023-04-20T03:22:19.137Z,9.26
2023-04-20T03:23:22.680Z,9.29
2023-04-20T03:24:25.944Z,9.28
2023-04-20T03:25:29.999Z,9.26
2023-04-20T03:26:37.208Z,9.29
2023-04-20T03:27:47.405Z,9.28
2023-04-20T03:28:51.879Z,9.29
2023-04-20T03:29:56.531Z,9.29
2023-04-20T03:31:00.587Z,9.31
2023-04-20T03:32:03.561Z,9.30
2023-04-20T03:33:06.141Z,9.32
2023-04-20T03:34:09.146Z,9.32
2023-04-20T03:35:12.436Z,9.34
2023-04-20T03:36:16.848Z,9.34
2023-04-20T03:37:19.333Z,9.30
2023-04-20T03:38:22.715Z,9.29
2023-04-20T03:39:25.276Z,9.29
2023-04-20T03:40:27.727Z,9.31
2023-04-20T03:41:30.934Z,9.30
2023-04-20T03:42:33.107Z,9.33
2023-04-20T03:43:35.547Z,9.38
2023-04-20T03:44:38.634Z,9.38
2023-04-20T03:45:41.690Z,9.41
2023-04-20T03:46:45.257Z,9.41
2023-04-20T03:47:48.728Z,9.47
2023-04-20T03:48:51.299Z,9.47
2023-04-20T03:49:53.740Z,9.46
2023-04-20T03:50:58.826Z,9.46
2023-04-20T03:52:01.434Z,9.46
2023-04-20T03:53:03.778Z,9.48
2023-04-20T03:54:08.023Z,9.50
2023-04-20T03:55:11.104Z,9.55
2023-04-20T03:56:15.527Z,9.56
2023-04-20T03:57:18.665Z,9.60
2023-04-20T03:58:21.625Z,9.55
2023-04-20T03:59:29.170Z,9.55
2023-04-20T04:00:32.125Z,9.52
2023-04-20T04:01:38.450Z,9.53
2023-04-20T04:02:41.102Z,9.56
2023-04-20T04:03:44.016Z,9.59
2023-04-20T04:04:47.010Z,9.56
2023-04-20T04:05:50.742Z,9.55
2023-04-20T04:06:53.775Z,9.58
2023-04-20T04:07:55.976Z,9.61
2023-04-20T04:08:58.383Z,9.60
2023-04-20T04:10:02.606Z,9.55
2023-04-20T04:11:05.210Z,9.55
2023-04-20T04:12:07.789Z,9.53
2023-04-20T04:13:10.147Z,9.52
2023-04-20T04:14:12.865Z,9.48
2023-04-20T04:15:15.875Z,9.46
2023-04-20T04:16:23.156Z,9.45
2023-04-20T04:17:26.052Z,9.43
2023-04-20T04:18:32.146Z,9.40
2023-04-20T04:19:35.898Z,9.39
2023-04-20T04:20:40.163Z,9.39
2023-04-20T04:21:44.137Z,9.31
2023-04-20T04:22:47.966Z,9.34
2023-04-20T04:23:55.334Z,9.35
2023-04-20T04:24:59.988Z,9.35
2023-04-20T04:26:03.628Z,9.37
2023-04-20T04:27:07.565Z,9.37
2023-04-20T04:28:13.112Z,9.41
2023-04-20T04:29:18.918Z,9.41
2023-04-20T04:30:21.803Z,9.37
2023-04-20T04:31:24.751Z,9.32
2023-04-20T04:32:26.963Z,9.32
2023-04-20T04:33:29.439Z,9.37
2023-04-20T04:34:33.723Z,9.43
2023-04-20T04:35:38.255Z,9.38
2023-04-20T04:36:41.158Z,9.33
2023-04-20T04:37:45.628Z,9.21
2023-04-20T04:38:48.559Z,9.21
2023-04-20T04:39:50.958Z,9.29
2023-04-20T04:40:55.688Z,9.27
2023-04-20T04:41:57.999Z,9.33
2023-04-20T04:43:03.407Z,9.33
2023-04-20T04:44:06.422Z,9.32
2023-04-20T04:45:11.476Z,9.30
2023-04-20T04:46:15.383Z,9.35
2023-04-20T04:47:19.415Z,9.43
2023-04-20T04:48:22.572Z,9.37
2023-04-20T04:49:26.033Z,9.40
2023-04-20T04:50:28.454Z,9.40
2023-04-20T04:51:31.180Z,9.40
2023-04-20T04:52:33.524Z,9.35
2023-04-20T04:53:37.236Z,9.33
2023-04-20T04:54:40.329Z,9.34
2023-04-20T04:55:43.086Z,9.38
2023-04-20T04:56:45.496Z,9.36
2023-04-20T04:57:48.192Z,9.31
2023-04-20T04:58:50.648Z,9.26
2023-04-20T04:59:53.219Z,9.28
2023-04-20T05:00:55.670Z,9.26
2023-04-20T05:01:58.855Z,9.26
2023-04-20T05:03:01.319Z,9.15
2023-04-20T05:04:03.884Z,9.17
2023-04-20T05:05:09.539Z,9.17
2023-04-20T05:06:12.818Z,9.18
2023-04-20T05:07:15.233Z,9.09
2023-04-20T05:08:17.769Z,9.06
2023-04-20T05:09:20.534Z,9.09
2023-04-20T05:10:23.242Z,9.13
2023-04-20T05:11:25.568Z,9.06
2023-04-20T05:12:27.903Z,9.10
2023-04-20T05:13:30.110Z,9.13
2023-04-20T05:14:33.696Z,9.12
2023-04-20T05:15:36.119Z,9.03
2023-04-20T05:16:38.685Z,8.99
2023-04-20T05:17:41.013Z,8.95
2023-04-20T05:18:43.409Z,8.93
2023-04-20T05:19:45.612Z,8.91
2023-04-20T05:20:47.934Z,8.93
2023-04-20T05:21:50.169Z,8.96
2023-04-20T05:22:52.289Z,8.96
2023-04-20T05:23:55.006Z,8.93
2023-04-20T05:24:57.133Z,8.93
2023-04-20T05:25:59.650Z,8.93
2023-04-20T05:27:03.678Z,8.90
2023-04-20T05:28:06.049Z,8.87
2023-04-20T05:29:09.432Z,8.90
2023-04-20T05:30:20.600Z,8.93
2023-04-20T05:31:16.044Z,8.92
2023-04-20T05:33:21.296Z,8.83
2023-04-20T05:34:24.387Z,8.88
2023-04-20T05:35:27.345Z,8.89
2023-04-20T05:36:30.403Z,8.93
2023-04-20T05:37:33.495Z,8.89
2023-04-20T05:38:36.304Z,8.85
2023-04-20T05:39:38.845Z,8.90
2023-04-20T05:40:41.327Z,8.95
2023-04-20T05:41:44.893Z,8.96
2023-04-20T05:42:47.488Z,8.95
2023-04-20T05:43:50.113Z,8.97
2023-04-20T05:44:52.350Z,8.99
2023-04-20T05:45:55.535Z,9.00
2023-04-20T05:46:58.184Z,9.01
2023-04-20T05:48:01.471Z,8.94
2023-04-20T05:49:04.527Z,8.86
2023-04-20T05:50:09.445Z,8.91
2023-04-20T05:51:11.971Z,8.94
2023-04-20T05:52:14.393Z,8.95
2023-04-20T05:53:16.729Z,8.95
2023-04-20T05:54:19.705Z,9.01
2023-04-20T05:55:22.998Z,9.09
2023-04-20T05:56:26.666Z,9.08
2023-04-20T05:57:29.620Z,9.08
2023-04-20T05:58:36.904Z,9.08
2023-04-20T05:59:39.153Z,9.08
2023-04-20T06:00:42.052Z,9.05
2023-04-20T06:01:44.317Z,9.07
2023-04-20T06:02:47.322Z,9.19
2023-04-20T06:03:49.810Z,9.16
2023-04-20T06:04:53.138Z,9.22
2023-04-20T06:05:55.801Z,9.25
2023-04-20T06:06:59.594Z,9.31
2023-04-20T06:08:01.722Z,9.37
2023-04-20T06:09:04.632Z,9.30
2023-04-20T06:10:08.516Z,9.28
2023-04-20T06:11:12.021Z,9.30
2023-04-20T06:12:15.101Z,9.29
2023-04-20T06:13:17.476Z,9.23
2023-04-20T06:14:19.794Z,9.19
2023-04-20T06:15:22.118Z,9.25
2023-04-20T06:16:24.734Z,9.29
2023-04-20T06:17:27.319Z,9.33
2023-04-20T06:18:29.538Z,9.36
2023-04-20T06:19:31.642Z,9.45
2023-04-20T06:20:33.960Z,9.53
2023-04-20T06:21:36.569Z,9.55
2023-04-20T06:22:44.771Z,9.63
2023-04-20T06:23:47.160Z,9.63
2023-04-20T06:24:49.556Z,9.64
2023-04-20T06:25:52.058Z,9.70
2023-04-20T06:26:54.656Z,9.67
2023-04-20T06:27:56.987Z,9.62
2023-04-20T06:29:00.820Z,9.68
2023-04-20T06:30:04.242Z,9.72
2023-04-20T06:31:09.754Z,9.77
2023-04-20T06:32:12.180Z,9.77
2023-04-20T06:33:16.577Z,9.84
2023-04-20T06:34:19.486Z,9.79
2023-04-20T06:35:22.879Z,9.84
2023-04-20T06:36:27.165Z,9.83
2023-04-20T06:37:29.738Z,9.85
2023-04-20T06:38:33.099Z,9.85
2023-04-20T06:39:35.573Z,9.89
2023-04-20T06:40:38.076Z,9.91
2023-04-20T06:41:40.343Z,9.91
2023-04-20T06:42:42.968Z,9.99
2023-04-20T06:43:46.784Z,9.95
2023-04-20T06:44:48.967Z,9.93
2023-04-20T06:45:52.328Z,9.93
2023-04-20T06:46:54.877Z,9.95
2023-04-20T06:47:57.196Z,9.89
2023-04-20T06:48:59.275Z,9.98
2023-04-20T06:50:06.351Z,9.99
2023-04-20T06:51:09.148Z,9.98
2023-04-20T06:52:11.177Z,9.98
2023-04-20T06:53:13.481Z,9.96
2023-04-20T06:54:15.713Z,10.00
2023-04-20T06:55:18.013Z,10.09
2023-04-20T06:56:21.551Z,10.16
2023-04-20T06:57:23.948Z,10.17
2023-04-20T06:58:26.190Z,10.22
2023-04-20T06:59:29.177Z,10.19
2023-04-20T07:00:31.579Z,10.21
2023-04-20T07:01:34.093Z,10.20
2023-04-20T07:02:48.826Z,10.22
2023-04-20T07:03:53.025Z,10.25
2023-04-20T07:05:01.945Z,10.29
2023-04-20T07:06:06.662Z,10.30
2023-04-20T07:07:09.014Z,10.28
2023-04-20T07:08:11.236Z,10.24
2023-04-20T07:09:13.942Z,10.15
2023-04-20T07:10:16.852Z,10.12
2023-04-20T07:11:19.166Z,10.14
2023-04-20T07:12:21.467Z,10.16
2023-04-20T07:13:25.577Z,10.15
2023-04-20T07:14:28.530Z,10.10
2023-04-20T07:15:30.807Z,10.04
2023-04-20T07:16:33.107Z,10.01
2023-04-20T07:17:35.592Z,10.02
2023-04-20T07:18:37.958Z,10.05
2023-04-20T07:19:40.571Z,10.14
2023-04-20T07:20:43.402Z,10.18
2023-04-20T07:21:45.908Z,10.16
2023-04-20T07:22:51.336Z,10.21
2023-04-20T07:23:56.033Z,10.15
2023-04-20T07:25:00.407Z,10.14
2023-04-20T07:26:03.965Z,10.19
2023-04-20T07:27:07.922Z,10.22
2023-04-20T07:28:12.222Z,10.30
2023-04-20T07:29:15.897Z,10.32
2023-04-20T07:30:19.047Z,10.32
2023-04-20T07:31:21.997Z,10.34
2023-04-20T07:32:25.417Z,10.44
2023-04-20T07:33:29.251Z,10.50
2023-04-20T07:34:31.699Z,10.55
2023-04-20T07:35:33.844Z,10.62
2023-04-20T07:36:38.154Z,10.62
2023-04-20T07:37:40.904Z,10.58
2023-04-20T07:38:43.103Z,10.42
2023-04-20T07:39:45.925Z,10.42
2023-04-20T07:40:48.499Z,10.43
2023-04-20T07:41:51.803Z,10.37
2023-04-20T07:42:55.274Z,10.20
2023-04-20T07:43:57.659Z,10.28
2023-04-20T07:44:59.980Z,10.34
2023-04-20T07:46:07.582Z,10.21
2023-04-20T07:47:10.207Z,10.13
2023-04-20T07:48:12.652Z,10.20
2023-04-20T07:49:15.618Z,10.10
2023-04-20T07:50:18.395Z,10.09
2023-04-20T07:51:22.006Z,10.04
2023-04-20T07:52:26.066Z,9.89
2023-04-20T07:53:32.506Z,9.88
2023-04-20T07:54:35.433Z,9.85
2023-04-20T07:55:37.871Z,9.79
2023-04-20T07:56:40.295Z,9.83
2023-04-20T07:57:43.806Z,9.82
2023-04-20T07:58:46.543Z,9.70
2023-04-20T07:59:49.041Z,9.58
2023-04-20T08:01:43.198Z,9.54
2023-04-20T08:02:45.629Z,9.31
2023-04-20T08:03:48.231Z,9.24
2023-04-20T08:04:52.083Z,9.26
2023-04-20T08:05:55.818Z,9.33
2023-04-20T08:06:58.386Z,9.22
2023-04-20T08:08:00.486Z,9.20
2023-04-20T08:09:03.219Z,9.19
2023-04-20T08:10:06.865Z,9.21
2023-04-20T08:11:09.159Z,9.16
2023-04-20T08:12:11.406Z,8.96
2023-04-20T08:13:14.302Z,8.96
2023-04-20T08:14:16.809Z,8.93
2023-04-20T08:15:19.377Z,8.97
2023-04-20T08:16:21.834Z,8.97
2023-04-20T08:17:24.200Z,8.97
2023-04-20T08:18:27.713Z,9.05
2023-04-20T08:19:30.308Z,8.96
2023-04-20T08:21:37.825Z,8.97
2023-04-20T08:22:40.107Z,8.92
2023-04-20T08:23:42.695Z,8.94
2023-04-20T08:24:45.038Z,8.95
2023-04-20T08:25:47.180Z,8.96
2023-04-20T08:26:50.158Z,8.91
2023-04-20T08:27:53.419Z,8.94
2023-04-20T08:28:55.882Z,8.88
2023-04-20T08:29:58.406Z,8.87
2023-04-20T08:31:01.266Z,8.94
2023-04-20T08:32:04.058Z,9.00
2023-04-20T08:33:06.877Z,8.99
2023-04-20T08:34:09.287Z,8.98
2023-04-20T08:35:11.494Z,8.96
2023-04-20T08:36:14.604Z,8.99
2023-04-20T08:37:17.671Z,8.99
2023-04-20T08:38:26.900Z,9.02
2023-04-20T08:39:25.541Z,9.02
2023-04-20T08:40:29.418Z,9.01
2023-04-20T08:41:31.875Z,9.10
2023-04-20T08:42:34.368Z,9.06
2023-04-20T08:43:40.152Z,9.09
2023-04-20T08:44:42.984Z,9.13
2023-04-20T08:45:49.633Z,9.13
2023-04-20T08:46:51.962Z,9.14
2023-04-20T08:47:55.910Z,9.15
2023-04-20T08:49:01.831Z,9.13
2023-04-20T08:50:06.017Z,9.10
2023-04-20T08:51:08.999Z,9.11
2023-04-20T08:52:11.867Z,9.19
2023-04-20T08:53:14.096Z,9.22
2023-04-20T08:54:17.868Z,9.23
2023-04-20T08:55:20.671Z,9.27
2023-04-20T08:57:51.202Z,9.38
2023-04-20T08:58:55.792Z,9.25
2023-04-20T08:59:58.690Z,9.31
2023-04-20T09:01:01.718Z,9.24
2023-04-20T09:02:11.372Z,9.27
2023-04-20T09:03:14.393Z,9.32
2023-04-20T09:04:23.100Z,9.39
2023-04-20T09:05:29.340Z,9.34
2023-04-20T09:06:31.846Z,9.28
2023-04-20T09:07:34.782Z,9.31
2023-04-20T09:08:39.756Z,9.36
2023-04-20T09:09:43.785Z,9.34
2023-04-20T09:10:46.579Z,9.27
2023-04-20T09:12:04.524Z,9.35
2023-04-20T09:13:06.870Z,9.41
2023-04-20T09:14:13.001Z,9.49
2023-04-20T09:15:26.328Z,9.54
2023-04-20T09:16:29.512Z,9.53
2023-04-20T09:17:34.567Z,9.55
2023-04-20T09:18:39.364Z,9.62
2023-04-20T09:19:44.144Z,9.57
2023-04-20T09:20:46.745Z,9.49
2023-04-20T09:21:51.226Z,9.43
2023-04-20T09:22:54.211Z,9.47
2023-04-20T09:24:08.182Z,9.48
2023-04-20T09:25:17.375Z,9.45
2023-04-20T09:26:20.224Z,9.55
2023-04-20T09:27:23.305Z,9.60
2023-04-20T09:28:41.131Z,9.67
2023-04-20T09:29:44.650Z,9.68
2023-04-20T09:30:48.597Z,9.67
2023-04-20T09:31:51.628Z,9.82
2023-04-20T09:33:02.281Z,9.84
2023-04-20T09:34:05.123Z,9.83
2023-04-20T09:35:09.152Z,9.95
2023-04-20T09:36:11.711Z,9.99
2023-04-20T09:37:18.196Z,9.99
2023-04-20T09:38:24.122Z,10.00
2023-04-20T09:39:26.478Z,10.05
2023-04-20T09:40:29.826Z,10.04
2023-04-20T09:41:34.241Z,10.11
2023-04-20T09:42:40.252Z,10.17
2023-04-20T09:43:43.598Z,10.26
2023-04-20T09:44:46.072Z,10.37
2023-04-20T09:45:49.784Z,10.45
2023-04-20T09:46:52.620Z,10.48
2023-04-20T09:47:56.684Z,10.58
2023-04-20T09:49:01.041Z,10.58
2023-04-20T09:50:19.356Z,10.60
2023-04-20T09:51:10.174Z,10.60
2023-04-20T09:52:14.874Z,10.67
2023-04-20T09:53:18.558Z,10.69
2023-04-20T09:54:21.564Z,10.69
2023-04-20T09:55:26.040Z,10.66
2023-04-20T09:56:29.663Z,10.63
2023-04-20T09:57:32.045Z,10.63
2023-04-20T09:58:34.465Z,10.59
2023-04-20T09:59:37.917Z,10.56
2023-04-20T10:00:42.287Z,10.56
2023-04-20T10:01:45.218Z,10.53
2023-04-20T10:02:48.013Z,10.51
2023-04-20T10:03:55.946Z,10.44
2023-04-20T10:05:02.288Z,10.49
2023-04-20T10:06:06.937Z,10.46
2023-04-20T10:07:10.508Z,10.43
2023-04-20T10:08:13.108Z,10.55
2023-04-20T10:09:22.902Z,10.52
2023-04-20T10:10:26.701Z,10.54
2023-04-20T10:11:49.111Z,10.59
2023-04-20T10:12:48.580Z,10.57
2023-04-20T10:13:51.193Z,10.68
2023-04-20T10:14:57.767Z,10.69
2023-04-20T10:16:00.137Z,10.61
2023-04-20T10:17:07.252Z,10.59
2023-04-20T10:18:22.692Z,10.58
2023-04-20T10:19:26.762Z,10.62
2023-04-20T10:20:29.559Z,10.70
2023-04-20T10:21:33.200Z,10.76
2023-04-20T10:22:35.696Z,10.71
2023-04-20T10:23:48.833Z,10.61
2023-04-20T10:24:52.319Z,10.71
2023-04-20T10:26:00.039Z,10.70
2023-04-20T10:27:03.841Z,10.67
2023-04-20T10:28:08.178Z,10.69
2023-04-20T10:29:13.997Z,10.71
2023-04-20T10:30:17.758Z,10.66
2023-04-20T10:31:22.464Z,10.73
2023-04-20T10:32:26.892Z,10.73
2023-04-20T10:33:29.791Z,10.71
2023-04-20T10:34:36.973Z,10.67
2023-04-20T10:35:51.431Z,10.64
2023-04-20T10:36:54.039Z,10.60
2023-04-20T10:37:57.155Z,10.50
2023-04-20T10:39:05.285Z,10.46
2023-04-20T10:40:10.121Z,10.45
2023-04-20T10:41:13.357Z,10.39
2023-04-20T10:42:17.981Z,10.32
2023-04-20T10:43:21.030Z,10.24
2023-04-20T10:44:27.049Z,10.19
2023-04-20T10:45:39.544Z,10.07
2023-04-20T10:46:41.928Z,10.06
2023-04-20T10:47:44.719Z,10.00
2023-04-20T10:48:52.585Z,10.05
2023-04-20T10:49:57.329Z,10.08
2023-04-20T10:51:03.694Z,10.16
2023-04-20T10:52:07.109Z,10.19
2023-04-20T10:53:23.369Z,10.26
2023-04-20T10:54:27.340Z,10.23
2023-04-20T10:55:31.303Z,10.26
2023-04-20T10:56:39.379Z,10.28
2023-04-20T10:57:46.243Z,10.20
2023-04-20T10:58:49.010Z,10.21
2023-04-20T10:59:51.118Z,10.27
2023-04-20T11:01:05.203Z,10.28
2023-04-20T11:02:10.260Z,10.28
2023-04-20T11:03:12.745Z,10.29
2023-04-20T11:04:18.392Z,10.38
2023-04-20T11:05:22.645Z,10.47
2023-04-20T11:06:27.238Z,10.47
2023-04-20T11:07:29.497Z,10.47
2023-04-20T11:08:42.624Z,10.45
2023-04-20T11:09:44.796Z,10.44
2023-04-20T11:10:47.839Z,10.43
2023-04-20T11:12:11.618Z,10.42
2023-04-20T11:13:23.088Z,10.37
2023-04-20T11:14:26.280Z,10.42
2023-04-20T11:15:36.235Z,10.45
2023-04-20T11:16:50.803Z,10.47
2023-04-20T11:17:46.200Z,10.46
2023-04-20T11:18:52.955Z,10.49
2023-04-20T11:19:59.536Z,10.52
2023-04-20T11:21:01.906Z,10.52
2023-04-20T11:22:06.377Z,10.61
2023-04-20T11:23:09.488Z,10.52
2023-04-20T11:24:23.684Z,10.55
2023-04-20T11:25:28.451Z,10.52
2023-04-20T11:26:35.629Z,10.54
2023-04-20T11:27:39.112Z,10.54
2023-04-20T11:28:55.963Z,10.76
2023-04-20T11:30:02.532Z,10.76
2023-04-20T11:31:07.269Z,10.74
2023-04-20T11:32:11.062Z,10.81
2023-04-20T11:33:13.679Z,10.67
2023-04-20T11:34:21.808Z,10.79
2023-04-20T11:35:24.336Z,10.85
2023-04-20T11:36:29.478Z,10.89
2023-04-20T11:37:31.986Z,10.94
2023-04-20T11:38:35.897Z,10.97
2023-04-20T11:39:39.345Z,11.01
2023-04-20T11:40:41.627Z,10.99
2023-04-20T11:41:45.104Z,11.00
2023-04-20T11:42:50.157Z,10.99
2023-04-20T11:43:53.104Z,10.98
2023-04-20T11:44:57.113Z,10.99
2023-04-20T11:46:02.420Z,10.93
2023-04-20T11:47:09.100Z,10.91
2023-04-20T11:48:12.576Z,10.93
2023-04-20T11:49:18.133Z,10.88
2023-04-20T11:50:28.249Z,10.83
2023-04-20T11:51:39.059Z,10.84
2023-04-20T11:52:43.380Z,10.77
2023-04-20T11:53:45.995Z,10.79
2023-04-20T11:54:50.368Z,10.87
2023-04-20T11:55:52.493Z,10.87
2023-04-20T11:56:55.467Z,10.86
2023-04-20T11:57:57.779Z,10.92
2023-04-20T11:59:00.212Z,10.88
2023-04-20T12:00:03.767Z,10.92
2023-04-20T12:01:08.020Z,10.85
2023-04-20T12:02:10.420Z,10.81
2023-04-20T12:03:14.033Z,10.80
2023-04-20T12:04:17.009Z,10.89
2023-04-20T12:05:19.900Z,10.93
2023-04-20T12:06:22.165Z,10.95
2023-04-20T12:07:24.491Z,10.97
2023-04-20T12:08:27.744Z,10.99
2023-04-20T12:09:30.498Z,10.98
2023-04-20T12:10:32.598Z,11.00
2023-04-20T12:11:35.860Z,11.01
2023-04-20T12:12:39.076Z,11.11
2023-04-20T12:13:41.456Z,11.14
2023-04-20T12:14:44.973Z,11.12
2023-04-20T12:15:55.778Z,11.14
2023-04-20T12:16:58.069Z,11.25
2023-04-20T12:18:00.596Z,11.33
2023-04-20T12:19:02.921Z,11.33
2023-04-20T12:20:08.043Z,11.32
2023-04-20T12:21:12.218Z,11.38
2023-04-20T12:22:15.598Z,11.38
2023-04-20T12:23:19.236Z,11.31
2023-04-20T12:24:23.442Z,11.30
2023-04-20T12:25:25.858Z,11.26
2023-04-20T12:26:37.239Z,11.17
2023-04-20T12:27:37.272Z,11.21
2023-04-20T12:28:40.381Z,11.18
2023-04-20T12:29:42.734Z,11.13
2023-04-20T12:30:49.496Z,11.12
2023-04-20T12:31:54.634Z,11.18
2023-04-20T12:32:57.750Z,11.14
2023-04-20T12:34:02.158Z,11.11
2023-04-20T12:35:05.288Z,11.03
2023-04-20T12:36:09.326Z,11.05
2023-04-20T12:37:12.029Z,11.08
2023-04-20T12:38:17.025Z,11.09
2023-04-20T12:39:20.673Z,11.03
2023-04-20T12:40:23.662Z,11.12
2023-04-20T12:41:27.755Z,11.17
2023-04-20T12:42:31.136Z,11.27
2023-04-20T12:43:33.599Z,11.29
2023-04-20T12:44:36.439Z,11.32
2023-04-20T12:45:38.556Z,11.32
2023-04-20T12:46:41.713Z,11.25
2023-04-20T12:47:45.133Z,11.25
2023-04-20T12:48:48.133Z,11.24
2023-04-20T12:49:50.333Z,11.22
2023-04-20T12:50:52.543Z,11.13
2023-04-20T12:51:54.607Z,11.11
2023-04-20T12:52:57.913Z,11.12
2023-04-20T12:54:00.201Z,11.14
2023-04-20T12:55:02.961Z,11.09
2023-04-20T12:56:07.141Z,11.11
2023-04-20T12:57:09.614Z,11.06
2023-04-20T12:58:12.156Z,10.96
2023-04-20T12:59:14.982Z,10.88
2023-04-20T13:00:18.660Z,10.74
2023-04-20T13:01:21.608Z,10.82
2023-04-20T13:02:24.407Z,10.76
2023-04-20T13:03:28.621Z,10.65
2023-04-20T13:04:31.283Z,10.67
2023-04-20T13:05:33.678Z,10.58
2023-04-20T13:06:36.008Z,10.51
2023-04-20T13:07:38.226Z,10.63
2023-04-20T13:08:40.758Z,10.62
2023-04-20T13:09:43.013Z,10.68
2023-04-20T13:10:45.674Z,10.63
2023-04-20T13:11:47.828Z,10.73
2023-04-20T13:12:52.853Z,10.70
2023-04-20T13:13:57.414Z,10.71
2023-04-20T13:15:00.626Z,10.71
2023-04-20T13:16:03.190Z,10.71
2023-04-20T13:17:06.396Z,10.72
2023-04-20T13:18:09.451Z,10.78
2023-04-20T13:19:12.039Z,10.76
2023-04-20T13:20:15.301Z,10.80
2023-04-20T13:21:17.502Z,10.82
2023-04-20T13:22:19.826Z,10.84
2023-04-20T13:23:22.147Z,10.83
2023-04-20T13:24:25.687Z,10.88
2023-04-20T13:25:31.884Z,10.96
2023-04-20T13:26:34.743Z,10.96
2023-04-20T13:27:37.964Z,10.94
2023-04-20T13:28:40.871Z,10.97
2023-04-20T13:29:43.285Z,10.96
2023-04-20T13:30:46.271Z,11.01
2023-04-20T13:31:48.652Z,11.05
2023-04-20T13:32:51.123Z,11.09
2023-04-20T13:33:54.432Z,11.05
2023-04-20T13:34:57.400Z,11.09
2023-04-20T13:35:59.786Z,11.05
2023-04-20T13:37:02.940Z,11.08
2023-04-20T13:38:05.687Z,11.08
2023-04-20T13:39:10.686Z,11.20
2023-04-20T13:40:13.987Z,11.25
2023-04-20T13:41:21.911Z,11.23
2023-04-20T13:42:24.244Z,11.22
2023-04-20T13:43:26.917Z,11.17
2023-04-20T13:44:29.356Z,11.16
2023-04-20T13:45:31.584Z,11.12
2023-04-20T13:46:34.492Z,11.08
2023-04-20T13:47:39.520Z,10.99
2023-04-20T13:48:41.941Z,10.97
2023-04-20T13:49:44.783Z,10.95
2023-04-20T13:50:47.069Z,10.89
2023-04-20T13:51:49.676Z,10.83
2023-04-20T13:52:52.760Z,10.80
2023-04-20T13:53:55.109Z,10.78
2023-04-20T13:54:59.132Z,10.70
2023-04-20T13:56:02.475Z,10.71
2023-04-20T13:57:05.534Z,10.73
2023-04-20T13:58:07.851Z,10.76
2023-04-20T13:59:10.473Z,10.80
2023-04-20T14:00:13.662Z,10.82
2023-04-20T14:01:18.037Z,10.83
2023-04-20T14:02:21.620Z,10.85